createdAt,value
2019-06-26T00:00:11.354Z,13.77
2019-06-26T00:00:57.589Z,13.50
2019-06-26T00:01:45.011Z,14.07
2019-06-26T00:02:31.207Z,14.40
2019-06-26T00:03:17.015Z,13.83
2019-06-26T00:04:02.894Z,13.30
2019-06-26T00:04:49.256Z,12.53
2019-06-26T00:05:35.580Z,14.47
2019-06-26T00:06:21.429Z,14.70
2019-06-26T00:07:07.541Z,13.57
2019-06-26T00:07:53.810Z,13.13
2019-06-26T00:08:40.043Z,13.93
2019-06-26T00:09:26.124Z,14.40
2019-06-26T00:10:12.816Z,15.23
2019-06-26T00:10:58.854Z,17.77
2019-06-26T00:11:45.291Z,14.93
2019-06-26T00:12:31.092Z,14.13
2019-06-26T00:13:26.098Z,14.37
2019-06-26T00:14:06.072Z,13.93
2019-06-26T00:14:52.405Z,14.17
2019-06-26T00:15:38.660Z,14.13
2019-06-26T00:16:24.567Z,14.07
2019-06-26T00:17:10.470Z,15.13
2019-06-26T00:17:59.535Z,16.50
2019-06-26T00:18:45.956Z,15.00
2019-06-26T00:19:32.063Z,16.63
2019-06-26T00:20:18.621Z,14.83
2019-06-26T00:21:04.631Z,15.73
2019-06-26T00:21:50.711Z,15.70
2019-06-26T00:22:37.303Z,15.40
2019-06-26T00:23:23.610Z,16.20
2019-06-26T00:24:09.709Z,16.53
2019-06-26T00:24:55.778Z,16.93
2019-06-26T00:25:43.142Z,16.73
2019-06-26T00:26:29.422Z,18.53
2019-06-26T00:27:15.748Z,17.83
2019-06-26T00:28:01.569Z,19.27
2019-06-26T00:28:48.526Z,19.63
2019-06-26T00:29:34.799Z,18.83
2019-06-26T00:30:21.126Z,21.93
2019-06-26T00:31:07.474Z,19.93
2019-06-26T00:31:53.273Z,21.10
2019-06-26T00:32:39.285Z,18.77
2019-06-26T00:33:25.728Z,18.47
2019-06-26T00:34:11.985Z,17.97
2019-06-26T00:34:58.331Z,18.20
2019-06-26T00:35:45.382Z,18.80
2019-06-26T00:36:31.443Z,18.67
2019-06-26T00:37:18.918Z,18.37
2019-06-26T00:38:04.691Z,17.63
2019-06-26T00:38:51.728Z,17.43
2019-06-26T00:39:37.861Z,18.17
2019-06-26T00:40:24.127Z,20.33
2019-06-26T00:41:11.750Z,22.40
2019-06-26T00:41:58.066Z,22.60
2019-06-26T00:42:44.371Z,20.10
2019-06-26T00:43:41.933Z,20.83
2019-06-26T00:44:21.405Z,20.13
2019-06-26T00:45:08.259Z,19.13
2019-06-26T00:45:54.089Z,18.30
2019-06-26T00:46:40.023Z,19.47
2019-06-26T00:47:25.820Z,20.57
2019-06-26T00:48:11.650Z,21.13
2019-06-26T00:48:57.519Z,20.80
2019-06-26T00:49:43.675Z,22.07
2019-06-26T00:50:30.057Z,22.17
2019-06-26T00:51:16.081Z,22.20
2019-06-26T00:52:03.731Z,26.23
2019-06-26T00:52:50.066Z,25.53
2019-06-26T00:53:36.090Z,22.70
2019-06-26T00:54:22.676Z,22.17
2019-06-26T00:55:10.898Z,27.10
2019-06-26T00:55:57.129Z,24.63
2019-06-26T00:56:46.181Z,24.60
2019-06-26T00:57:32.224Z,29.30
2019-06-26T00:58:18.499Z,27.40
2019-06-26T00:59:04.820Z,27.77
2019-06-26T00:59:51.488Z,28.80
2019-06-26T01:00:43.438Z,27.57
2019-06-26T01:01:29.627Z,25.03
2019-06-26T01:02:15.763Z,30.63
2019-06-26T01:03:01.832Z,29.63
2019-06-26T01:03:50.025Z,28.40
2019-06-26T01:04:39.490Z,29.73
2019-06-26T01:05:25.776Z,31.57
2019-06-26T01:06:31.557Z,30.67
2019-06-26T01:07:17.873Z,27.07
2019-06-26T01:08:03.946Z,29.57
2019-06-26T01:08:50.258Z,31.57
2019-06-26T01:09:36.612Z,39.33
2019-06-26T01:10:23.167Z,33.73
2019-06-26T01:11:09.238Z,30.00
2019-06-26T01:11:55.515Z,28.97
2019-06-26T01:12:41.434Z,31.90
2019-06-26T01:13:28.503Z,31.43
2019-06-26T01:14:16.561Z,34.60
2019-06-26T01:15:03.411Z,39.33
2019-06-26T01:15:49.901Z,36.33
2019-06-26T01:16:37.231Z,37.57
2019-06-26T01:17:23.396Z,35.77
2019-06-26T01:18:09.815Z,31.87
2019-06-26T01:18:56.841Z,37.60
2019-06-26T01:19:43.058Z,37.60
2019-06-26T01:20:28.895Z,42.07
2019-06-26T01:21:16.039Z,36.53
2019-06-26T01:22:02.327Z,38.63
2019-06-26T01:22:48.217Z,35.73
2019-06-26T01:23:34.762Z,37.33
2019-06-26T01:24:22.359Z,37.27
2019-06-26T01:25:09.966Z,39.70
2019-06-26T01:26:00.356Z,35.73
2019-06-26T01:26:46.504Z,36.17
2019-06-26T01:27:32.466Z,43.20
2019-06-26T01:28:18.731Z,41.77
2019-06-26T01:29:04.834Z,36.43
2019-06-26T01:29:50.722Z,36.73
2019-06-26T01:30:36.644Z,37.37
2019-06-26T01:31:26.430Z,36.57
2019-06-26T01:32:12.608Z,40.50
2019-06-26T01:32:58.518Z,38.87
2019-06-26T01:33:44.979Z,37.47
2019-06-26T01:34:31.003Z,41.90
2019-06-26T01:35:18.419Z,40.17
2019-06-26T01:36:04.927Z,41.97
2019-06-26T01:36:52.480Z,44.60
2019-06-26T01:37:38.777Z,43.07
2019-06-26T01:38:24.823Z,42.10
2019-06-26T01:39:11.371Z,44.00
2019-06-26T01:39:57.680Z,39.10
2019-06-26T01:40:43.890Z,39.83
2019-06-26T01:41:30.923Z,41.83
2019-06-26T01:42:17.462Z,40.70
2019-06-26T01:43:05.691Z,44.10
2019-06-26T01:43:52.083Z,39.87
2019-06-26T01:44:38.583Z,39.30
2019-06-26T01:45:24.591Z,41.93
2019-06-26T01:46:10.658Z,40.20
2019-06-26T01:46:57.072Z,40.63
2019-06-26T01:47:43.349Z,44.90
2019-06-26T01:48:29.172Z,46.00
2019-06-26T01:49:15.050Z,46.33
2019-06-26T01:50:01.396Z,43.93
2019-06-26T01:50:47.907Z,42.03
2019-06-26T01:51:33.775Z,41.90
2019-06-26T01:52:19.746Z,43.60
2019-06-26T01:53:05.944Z,44.80
2019-06-26T01:53:52.372Z,48.50
2019-06-26T01:54:38.722Z,45.37
2019-06-26T01:55:24.997Z,47.30
2019-06-26T01:56:11.152Z,45.93
2019-06-26T01:56:57.315Z,50.27
2019-06-26T01:57:43.312Z,47.90
2019-06-26T01:58:29.135Z,47.00
2019-06-26T01:59:15.514Z,48.70
2019-06-26T02:00:01.863Z,45.87
2019-06-26T02:00:48.846Z,49.00
2019-06-26T02:01:35.383Z,52.07
2019-06-26T02:02:21.869Z,48.30
2019-06-26T02:03:08.451Z,49.87
2019-06-26T02:03:56.834Z,48.00
2019-06-26T02:04:43.043Z,52.00
2019-06-26T02:05:29.435Z,50.17
2019-06-26T02:06:15.941Z,53.83
2019-06-26T02:07:02.423Z,53.13
2019-06-26T02:07:48.599Z,52.77
2019-06-26T02:08:34.616Z,49.43
2019-06-26T02:09:20.866Z,50.23
2019-06-26T02:10:08.827Z,49.33
2019-06-26T02:10:54.794Z,51.37
2019-06-26T02:11:41.152Z,46.43
2019-06-26T02:12:28.011Z,46.03
2019-06-26T02:13:14.997Z,48.07
2019-06-26T02:14:01.245Z,48.00
2019-06-26T02:14:47.600Z,50.50
2019-06-26T02:15:33.868Z,46.93
2019-06-26T02:16:19.699Z,48.50
2019-06-26T02:17:05.530Z,48.17
2019-06-26T02:17:51.314Z,50.53
2019-06-26T02:18:50.302Z,45.50
2019-06-26T02:19:36.248Z,49.67
2019-06-26T02:20:22.140Z,50.23
2019-06-26T02:21:08.259Z,48.70
2019-06-26T02:21:56.844Z,49.17
2019-06-26T02:22:42.757Z,46.17
2019-06-26T02:23:31.987Z,45.53
2019-06-26T02:24:18.315Z,43.50
2019-06-26T02:25:05.167Z,49.77
2019-06-26T02:25:50.975Z,48.57
2019-06-26T02:26:37.015Z,46.27
2019-06-26T02:27:23.438Z,48.57
2019-06-26T02:28:09.816Z,47.93
2019-06-26T02:28:56.025Z,46.33
2019-06-26T02:29:42.362Z,45.70
2019-06-26T02:30:28.805Z,45.20
2019-06-26T02:31:15.877Z,41.20
2019-06-26T02:32:02.435Z,42.67
2019-06-26T02:32:51.662Z,44.07
2019-06-26T02:33:37.931Z,43.10
2019-06-26T02:34:24.093Z,47.33
2019-06-26T02:35:11.580Z,44.03
2019-06-26T02:35:57.631Z,45.67
2019-06-26T02:36:43.663Z,48.33
2019-06-26T02:37:29.476Z,44.57
2019-06-26T02:38:15.474Z,46.27
2019-06-26T02:39:01.229Z,43.40
2019-06-26T02:39:47.043Z,45.23
2019-06-26T02:40:33.353Z,41.83
2019-06-26T02:41:19.663Z,46.20
2019-06-26T02:42:05.624Z,50.40
2019-06-26T02:42:51.761Z,47.90
2019-06-26T02:43:37.709Z,49.37
2019-06-26T02:44:25.126Z,48.50
2019-06-26T02:45:12.148Z,50.70
2019-06-26T02:45:58.338Z,50.87
2019-06-26T02:46:44.734Z,50.90
2019-06-26T02:47:31.240Z,52.13
2019-06-26T02:48:17.587Z,48.97
2019-06-26T02:49:03.834Z,49.07
2019-06-26T02:49:49.814Z,49.90
2019-06-26T02:50:35.805Z,46.87
2019-06-26T02:51:23.335Z,48.07
2019-06-26T02:52:10.781Z,49.23
2019-06-26T02:52:57.108Z,45.13
2019-06-26T02:53:46.120Z,46.73
2019-06-26T02:54:32.359Z,48.30
2019-06-26T02:55:18.207Z,45.07
2019-06-26T02:56:05.803Z,46.17
2019-06-26T02:56:51.961Z,45.70
2019-06-26T02:57:38.163Z,43.40
2019-06-26T02:58:27.025Z,47.03
2019-06-26T02:59:14.352Z,46.97
2019-06-26T03:00:00.665Z,45.67
2019-06-26T03:00:46.738Z,45.40
2019-06-26T03:01:32.976Z,44.97
2019-06-26T03:02:19.431Z,44.07
2019-06-26T03:03:05.496Z,47.00
2019-06-26T03:03:51.828Z,45.73
2019-06-26T03:04:37.818Z,44.73
2019-06-26T03:05:23.759Z,43.27
2019-06-26T03:06:09.681Z,44.27
2019-06-26T03:06:55.763Z,42.40
2019-06-26T03:07:43.984Z,42.23
2019-06-26T03:08:30.179Z,39.67
2019-06-26T03:09:19.287Z,39.43
2019-06-26T03:10:05.681Z,40.27
2019-06-26T03:10:52.176Z,41.70
2019-06-26T03:11:38.268Z,40.40
2019-06-26T03:12:24.363Z,43.87
2019-06-26T03:13:10.359Z,41.13
2019-06-26T03:13:56.518Z,40.50
2019-06-26T03:14:43.025Z,39.73
2019-06-26T03:15:29.459Z,39.40
2019-06-26T03:16:15.513Z,37.20
2019-06-26T03:17:02.707Z,42.17
2019-06-26T03:17:55.349Z,42.90
2019-06-26T03:18:39.609Z,40.50
2019-06-26T03:19:25.976Z,40.23
2019-06-26T03:20:12.553Z,39.77
2019-06-26T03:20:59.134Z,39.47
2019-06-26T03:21:45.291Z,36.83
2019-06-26T03:22:31.456Z,39.00
2019-06-26T03:23:17.446Z,40.77
2019-06-26T03:24:03.465Z,37.70
2019-06-26T03:24:49.372Z,39.60
2019-06-26T03:25:35.191Z,38.43
2019-06-26T03:26:24.392Z,38.60
2019-06-26T03:27:10.542Z,41.23
2019-06-26T03:27:56.392Z,40.70
2019-06-26T03:28:42.791Z,38.23
2019-06-26T03:29:28.581Z,36.53
2019-06-26T03:30:16.304Z,36.37
2019-06-26T03:31:02.365Z,36.13
2019-06-26T03:31:48.220Z,37.87
2019-06-26T03:32:35.728Z,37.47
2019-06-26T03:33:22.111Z,37.53
2019-06-26T03:34:08.318Z,37.30
2019-06-26T03:34:54.219Z,40.40
2019-06-26T03:35:40.931Z,39.37
2019-06-26T03:36:27.120Z,38.37
2019-06-26T03:37:13.432Z,40.33
2019-06-26T03:37:59.352Z,38.13
2019-06-26T03:38:45.645Z,38.13
2019-06-26T03:39:31.462Z,35.93
2019-06-26T03:40:19.807Z,40.47
2019-06-26T03:41:06.378Z,40.53
2019-06-26T03:41:52.928Z,40.13
2019-06-26T03:42:38.770Z,42.63
2019-06-26T03:43:26.939Z,41.10
2019-06-26T03:44:13.182Z,43.10
2019-06-26T03:44:59.145Z,41.47
2019-06-26T03:45:47.212Z,40.17
2019-06-26T03:46:33.575Z,41.80
2019-06-26T03:47:19.708Z,39.33
2019-06-26T03:48:06.058Z,38.90
2019-06-26T03:48:52.232Z,37.23
2019-06-26T03:49:38.377Z,38.53
2019-06-26T03:50:25.978Z,39.27
2019-06-26T03:51:14.136Z,36.80
2019-06-26T03:52:00.384Z,37.83
2019-06-26T03:52:46.456Z,37.87
2019-06-26T03:53:33.107Z,39.87
2019-06-26T03:54:19.517Z,38.87
2019-06-26T03:55:06.308Z,38.60
2019-06-26T03:55:52.727Z,40.17
2019-06-26T03:56:39.070Z,42.77
2019-06-26T03:57:25.325Z,40.87
2019-06-26T03:58:11.292Z,39.67
2019-06-26T03:58:57.104Z,39.03
2019-06-26T03:59:43.038Z,39.57
2019-06-26T04:00:37.219Z,41.13
2019-06-26T04:01:23.195Z,40.40
2019-06-26T04:02:10.739Z,39.63
2019-06-26T04:02:57.232Z,37.83
2019-06-26T04:03:43.578Z,38.93
2019-06-26T04:04:29.596Z,40.93
2019-06-26T04:05:15.697Z,41.03
2019-06-26T04:06:01.997Z,42.20
2019-06-26T04:06:50.045Z,40.07
2019-06-26T04:07:36.107Z,39.17
2019-06-26T04:08:22.555Z,40.57
2019-06-26T04:09:09.003Z,40.97
2019-06-26T04:09:55.036Z,41.57
2019-06-26T04:10:43.423Z,41.03
2019-06-26T04:11:30.497Z,40.80
2019-06-26T04:12:17.176Z,40.83
2019-06-26T04:13:04.039Z,41.17
2019-06-26T04:13:50.347Z,37.43
2019-06-26T04:14:36.416Z,41.43
2019-06-26T04:15:22.906Z,39.57
2019-06-26T04:16:10.248Z,37.70
2019-06-26T04:16:56.848Z,42.60
2019-06-26T04:17:43.236Z,38.70
2019-06-26T04:18:29.040Z,42.20
2019-06-26T04:19:15.900Z,42.23
2019-06-26T04:20:03.487Z,40.57
2019-06-26T04:20:49.932Z,42.87
2019-06-26T04:21:36.305Z,40.23
2019-06-26T04:22:24.043Z,40.53
2019-06-26T04:23:10.285Z,40.33
2019-06-26T04:23:56.480Z,39.30
2019-06-26T04:24:43.349Z,39.43
2019-06-26T04:25:29.742Z,41.10
2019-06-26T04:26:15.587Z,38.20
2019-06-26T04:27:01.845Z,41.00
2019-06-26T04:27:47.633Z,43.97
2019-06-26T04:28:34.591Z,42.43
2019-06-26T04:29:21.914Z,40.30
2019-06-26T04:30:10.572Z,38.43
2019-06-26T04:30:57.607Z,40.00
2019-06-26T04:31:44.109Z,41.90
2019-06-26T04:32:30.654Z,41.47
2019-06-26T04:33:16.575Z,42.30
2019-06-26T04:34:02.539Z,43.10
2019-06-26T04:34:48.728Z,42.97
2019-06-26T04:35:35.863Z,41.93
2019-06-26T04:36:22.149Z,44.03
2019-06-26T04:37:08.534Z,41.60
2019-06-26T04:37:54.601Z,42.93
2019-06-26T04:38:40.558Z,43.70
2019-06-26T04:39:26.830Z,42.13
2019-06-26T04:40:14.071Z,42.33
2019-06-26T04:40:59.760Z,45.77
2019-06-26T04:41:45.890Z,44.93
2019-06-26T04:42:32.238Z,42.43
2019-06-26T04:43:18.716Z,47.63
2019-06-26T04:44:04.943Z,43.20
2019-06-26T04:44:52.207Z,43.63
2019-06-26T04:45:38.747Z,46.80
2019-06-26T04:46:24.687Z,49.60
2019-06-26T04:47:11.133Z,47.03
2019-06-26T04:47:57.767Z,44.57
2019-06-26T04:48:44.067Z,45.87
2019-06-26T04:49:30.297Z,44.00
2019-06-26T04:50:17.126Z,45.40
2019-06-26T04:51:03.378Z,44.90
2019-06-26T04:51:49.639Z,45.17
2019-06-26T04:52:35.646Z,38.90
2019-06-26T04:53:21.502Z,46.10
2019-06-26T04:54:07.567Z,47.77
2019-06-26T04:54:53.721Z,43.87
2019-06-26T04:55:39.511Z,44.10
2019-06-26T04:56:25.905Z,36.60
2019-06-26T04:57:13.374Z,47.10
2019-06-26T04:57:59.767Z,51.07
2019-06-26T04:58:45.928Z,48.47
2019-06-26T04:59:32.329Z,51.70
2019-06-26T05:00:21.739Z,45.27
2019-06-26T05:01:08.800Z,41.13
2019-06-26T05:01:54.808Z,44.67
2019-06-26T05:02:41.085Z,45.73
2019-06-26T05:03:27.299Z,45.93
2019-06-26T05:04:13.197Z,48.07
2019-06-26T05:04:59.722Z,45.90
2019-06-26T05:05:46.186Z,48.03
2019-06-26T05:06:32.437Z,47.60
2019-06-26T05:07:18.846Z,42.90
2019-06-26T05:08:04.868Z,40.00
2019-06-26T05:08:51.227Z,41.17
2019-06-26T05:09:37.022Z,43.10
2019-06-26T05:10:23.443Z,44.17
2019-06-26T05:11:12.607Z,43.77
2019-06-26T05:11:58.146Z,43.20
2019-06-26T05:12:44.529Z,42.43
2019-06-26T05:13:30.848Z,44.17
2019-06-26T05:14:17.352Z,45.23
2019-06-26T05:15:04.504Z,43.53
2019-06-26T05:15:50.836Z,43.90
2019-06-26T05:16:37.415Z,45.30
2019-06-26T05:17:24.297Z,44.27
2019-06-26T05:18:10.713Z,44.88
2019-06-26T05:18:56.917Z,43.50
2019-06-26T05:19:43.422Z,44.03
2019-06-26T05:20:31.461Z,49.30
2019-06-26T05:21:17.765Z,49.17
2019-06-26T05:22:04.156Z,46.23
2019-06-26T05:22:50.454Z,45.73
2019-06-26T05:23:36.807Z,44.20
2019-06-26T05:24:23.166Z,47.37
2019-06-26T05:25:10.332Z,47.73
2019-06-26T05:25:58.427Z,46.93
2019-06-26T05:26:44.765Z,49.73
2019-06-26T05:27:30.932Z,45.47
2019-06-26T05:28:18.104Z,43.60
2019-06-26T05:29:04.404Z,44.33
2019-06-26T05:29:54.224Z,45.30
2019-06-26T05:30:38.871Z,45.43
2019-06-26T05:31:25.280Z,45.33
2019-06-26T05:32:11.367Z,45.87
2019-06-26T05:32:57.378Z,49.13
2019-06-26T05:33:45.290Z,48.67
2019-06-26T05:34:32.744Z,44.23
2019-06-26T05:35:19.145Z,44.43
2019-06-26T05:36:05.573Z,44.13
2019-06-26T05:36:52.020Z,43.80
2019-06-26T05:37:40.201Z,43.50
2019-06-26T05:38:27.677Z,46.87
2019-06-26T05:39:13.966Z,44.63
2019-06-26T05:40:01.301Z,40.03
2019-06-26T05:40:47.762Z,42.53
2019-06-26T05:41:33.903Z,47.67
2019-06-26T05:42:19.705Z,44.27
2019-06-26T05:43:05.589Z,48.27
2019-06-26T05:43:51.786Z,51.40
2019-06-26T05:44:38.193Z,44.93
2019-06-26T05:45:24.395Z,49.53
2019-06-26T05:46:10.928Z,49.27
2019-06-26T05:46:57.023Z,50.07
2019-06-26T05:47:43.021Z,49.43
2019-06-26T05:48:29.900Z,49.37
2019-06-26T05:49:16.283Z,53.07
2019-06-26T05:50:03.453Z,50.97
2019-06-26T05:50:49.346Z,54.07
2019-06-26T05:51:35.614Z,55.13
2019-06-26T05:52:21.598Z,58.80
2019-06-26T05:53:09.184Z,55.37
2019-06-26T05:53:55.340Z,53.67
2019-06-26T05:54:43.615Z,54.53
2019-06-26T05:55:30.035Z,52.50
2019-06-26T05:56:16.115Z,58.00
2019-06-26T05:57:02.316Z,56.90
2019-06-26T05:57:48.687Z,52.83
2019-06-26T05:58:36.694Z,59.90
2019-06-26T05:59:22.629Z,57.07
2019-06-26T06:00:09.648Z,57.47
2019-06-26T06:00:57.080Z,54.97
2019-06-26T06:01:43.255Z,50.80
2019-06-26T06:02:29.460Z,54.93
2019-06-26T06:03:16.870Z,55.10
2019-06-26T06:04:03.056Z,53.70
2019-06-26T06:04:49.309Z,53.47
2019-06-26T06:05:35.666Z,52.87
2019-06-26T06:06:21.844Z,59.50
2019-06-26T06:07:08.132Z,59.73
2019-06-26T06:07:54.248Z,55.57
2019-06-26T06:08:40.727Z,56.10
2019-06-26T06:09:26.878Z,55.37
2019-06-26T06:10:14.448Z,55.40
2019-06-26T06:11:01.779Z,54.27
2019-06-26T06:11:48.005Z,55.30
2019-06-26T06:12:34.426Z,54.23
2019-06-26T06:13:20.603Z,53.07
2019-06-26T06:14:06.739Z,52.43
2019-06-26T06:14:52.660Z,53.63
2019-06-26T06:15:38.460Z,54.37
2019-06-26T06:16:25.806Z,53.93
2019-06-26T06:17:12.095Z,57.10
2019-06-26T06:17:58.679Z,54.83
2019-06-26T06:18:44.820Z,54.57
2019-06-26T06:19:30.793Z,57.80
2019-06-26T06:20:24.599Z,58.20
2019-06-26T06:21:10.823Z,54.47
2019-06-26T06:21:57.351Z,57.63
2019-06-26T06:22:43.861Z,61.97
2019-06-26T06:23:30.412Z,55.73
2019-06-26T06:24:16.423Z,56.83
2019-06-26T06:25:04.287Z,54.90
2019-06-26T06:25:51.725Z,53.53
2019-06-26T06:26:38.313Z,54.40
2019-06-26T06:27:24.604Z,56.80
2019-06-26T06:28:11.256Z,54.70
2019-06-26T06:28:57.468Z,55.40
2019-06-26T06:29:43.809Z,56.67
2019-06-26T06:30:31.082Z,59.57
2019-06-26T06:31:17.216Z,56.27
2019-06-26T06:32:03.065Z,55.00
2019-06-26T06:32:48.942Z,55.07
2019-06-26T06:33:35.175Z,54.30
2019-06-26T06:34:21.005Z,56.70
2019-06-26T06:35:07.173Z,56.63
2019-06-26T06:35:53.279Z,56.13
2019-06-26T06:36:40.260Z,55.87
2019-06-26T06:37:26.463Z,52.20
2019-06-26T06:38:12.292Z,55.20
2019-06-26T06:38:58.196Z,55.10
2019-06-26T06:39:44.054Z,59.20
2019-06-26T06:40:30.458Z,57.47
2019-06-26T06:41:18.717Z,60.53
2019-06-26T06:42:04.860Z,61.60
2019-06-26T06:42:52.958Z,62.93
2019-06-26T06:43:39.149Z,60.77
2019-06-26T06:44:25.042Z,59.43
2019-06-26T06:45:13.130Z,57.77
2019-06-26T06:45:59.299Z,57.67
2019-06-26T06:46:45.279Z,57.20
2019-06-26T06:47:31.216Z,57.80
2019-06-26T06:48:17.140Z,58.33
2019-06-26T06:49:03.132Z,55.87
2019-06-26T06:49:51.079Z,57.73
2019-06-26T06:50:37.664Z,60.13
2019-06-26T06:51:24.062Z,59.43
2019-06-26T06:52:10.036Z,57.70
2019-06-26T06:52:56.412Z,58.43
2019-06-26T06:53:42.327Z,55.07
2019-06-26T06:54:28.575Z,57.60
2019-06-26T06:55:15.993Z,55.70
2019-06-26T06:56:02.253Z,58.63
2019-06-26T06:56:48.552Z,60.77
2019-06-26T06:57:35.606Z,55.80
2019-06-26T06:58:21.715Z,57.03
2019-06-26T06:59:09.074Z,56.43
2019-06-26T06:59:57.422Z,55.23
2019-06-26T07:00:43.863Z,57.73
2019-06-26T07:01:31.163Z,58.33
2019-06-26T07:02:18.534Z,54.40
2019-06-26T07:03:05.169Z,55.47
2019-06-26T07:03:51.804Z,59.60
2019-06-26T07:04:37.938Z,56.33
2019-06-26T07:05:25.380Z,55.77
2019-06-26T07:06:11.232Z,63.37
2019-06-26T07:06:58.797Z,59.00
2019-06-26T07:07:45.055Z,59.60
2019-06-26T07:08:31.264Z,60.33
2019-06-26T07:09:17.220Z,63.00
2019-06-26T07:10:03.316Z,60.00
2019-06-26T07:10:49.816Z,61.47
2019-06-26T07:11:36.206Z,57.07
2019-06-26T07:12:22.162Z,54.43
2019-06-26T07:13:08.413Z,55.37
2019-06-26T07:13:54.542Z,55.07
2019-06-26T07:14:41.045Z,58.77
2019-06-26T07:15:27.216Z,55.20
2019-06-26T07:16:13.537Z,60.93
2019-06-26T07:17:01.489Z,56.50
2019-06-26T07:17:48.162Z,54.88
2019-06-26T07:18:36.281Z,55.63
2019-06-26T07:19:22.500Z,53.77
2019-06-26T07:20:10.041Z,59.48
2019-06-26T07:20:57.217Z,54.20
2019-06-26T07:21:45.546Z,55.60
2019-06-26T07:22:31.728Z,53.48
2019-06-26T07:23:17.529Z,52.27
2019-06-26T07:24:03.443Z,54.18
2019-06-26T07:24:49.925Z,54.18
2019-06-26T07:25:36.135Z,64.50
2019-06-26T07:26:21.899Z,58.65
2019-06-26T07:27:07.682Z,63.25
2019-06-26T07:27:54.222Z,59.20
2019-06-26T07:28:40.106Z,60.78
2019-06-26T07:29:26.056Z,57.50
2019-06-26T07:30:14.440Z,53.87
2019-06-26T07:31:01.731Z,51.35
2019-06-26T07:31:49.379Z,55.40
2019-06-26T07:32:36.833Z,57.08
2019-06-26T07:33:23.067Z,56.92
2019-06-26T07:34:10.153Z,54.65
2019-06-26T07:34:57.643Z,54.35
2019-06-26T07:35:43.823Z,58.48
2019-06-26T07:36:29.613Z,55.88
2019-06-26T07:37:15.497Z,62.67
2019-06-26T07:38:01.439Z,53.68
2019-06-26T07:38:47.581Z,53.15
2019-06-26T07:39:34.210Z,55.30
2019-06-26T07:40:20.466Z,49.25
2019-06-26T07:41:07.947Z,52.90
2019-06-26T07:41:54.187Z,54.53
2019-06-26T07:42:41.297Z,55.90
2019-06-26T07:43:27.296Z,53.10
2019-06-26T07:44:13.288Z,46.98
2019-06-26T07:44:59.186Z,55.43
2019-06-26T07:45:45.543Z,58.00
2019-06-26T07:46:31.463Z,59.55
2019-06-26T07:47:22.838Z,57.20
2019-06-26T07:48:05.987Z,59.38
2019-06-26T07:48:52.336Z,49.20
2019-06-26T07:49:38.598Z,51.53
2019-06-26T07:50:25.011Z,52.33
2019-06-26T07:51:11.111Z,53.63
2019-06-26T07:51:57.213Z,48.60
2019-06-26T07:52:43.557Z,46.77
2019-06-26T07:53:29.413Z,46.02
2019-06-26T07:54:15.872Z,51.30
2019-06-26T07:55:02.348Z,51.40
2019-06-26T07:55:48.607Z,54.88
2019-06-26T07:56:34.953Z,51.73
2019-06-26T07:57:22.192Z,46.33
2019-06-26T07:58:08.291Z,44.35
2019-06-26T07:58:56.011Z,46.77
2019-06-26T07:59:42.232Z,47.23
2019-06-26T08:00:31.545Z,43.92
2019-06-26T08:01:16.119Z,44.58
2019-06-26T08:02:01.990Z,52.30
2019-06-26T08:02:48.380Z,50.48
2019-06-26T08:03:34.916Z,49.88
2019-06-26T08:04:22.411Z,49.77
2019-06-26T08:05:09.122Z,52.67
2019-06-26T08:05:58.038Z,50.20
2019-06-26T08:06:43.947Z,50.23
2019-06-26T08:07:30.247Z,46.75
2019-06-26T08:08:16.691Z,45.90
2019-06-26T08:09:04.044Z,45.60
2019-06-26T08:09:51.378Z,45.38
2019-06-26T08:10:37.443Z,44.45
2019-06-26T08:11:25.008Z,45.08
2019-06-26T08:12:11.526Z,50.05
2019-06-26T08:12:57.383Z,46.10
2019-06-26T08:13:44.771Z,54.27
2019-06-26T08:14:32.167Z,54.93
2019-06-26T08:15:18.059Z,51.25
2019-06-26T08:16:04.333Z,48.55
2019-06-26T08:16:52.418Z,48.70
2019-06-26T08:17:38.788Z,48.45
2019-06-26T08:18:25.260Z,41.90
2019-06-26T08:19:11.193Z,39.73
2019-06-26T08:19:57.592Z,43.83
2019-06-26T08:21:00.310Z,45.38
2019-06-26T08:21:32.344Z,46.33
2019-06-26T08:22:19.095Z,44.08
2019-06-26T08:23:05.140Z,49.85
2019-06-26T08:23:51.092Z,44.48
2019-06-26T08:24:37.688Z,43.13
2019-06-26T08:25:24.252Z,43.63
2019-06-26T08:26:10.825Z,40.28
2019-06-26T08:26:57.396Z,40.65
2019-06-26T08:27:43.709Z,46.63
2019-06-26T08:28:30.204Z,43.17
2019-06-26T08:29:16.579Z,42.03
2019-06-26T08:30:03.801Z,39.00
2019-06-26T08:30:49.940Z,44.35
2019-06-26T08:31:35.831Z,47.50
2019-06-26T08:32:25.834Z,46.33
2019-06-26T08:33:09.853Z,43.48
2019-06-26T08:33:55.723Z,40.88
2019-06-26T08:34:41.570Z,41.80
2019-06-26T08:35:27.895Z,51.63
2019-06-26T08:36:13.785Z,44.73
2019-06-26T08:36:59.801Z,41.98
2019-06-26T08:37:46.075Z,41.37
2019-06-26T08:38:31.932Z,41.63
2019-06-26T08:39:17.792Z,47.78
2019-06-26T08:40:04.857Z,47.67
2019-06-26T08:40:52.153Z,45.75
2019-06-26T08:41:38.404Z,36.48
2019-06-26T08:42:25.800Z,38.83
2019-06-26T08:43:12.068Z,36.83
2019-06-26T08:43:58.405Z,45.73
2019-06-26T08:44:44.831Z,40.10
2019-06-26T08:45:31.248Z,51.98
2019-06-26T08:46:17.757Z,52.23
2019-06-26T08:47:03.808Z,41.95
2019-06-26T08:47:49.725Z,41.35
2019-06-26T08:48:39.917Z,37.70
2019-06-26T08:49:26.019Z,51.85
2019-06-26T08:50:31.080Z,53.68
2019-06-26T08:51:17.348Z,52.40
2019-06-26T08:52:04.384Z,44.23
2019-06-26T08:52:50.504Z,46.33
2019-06-26T08:53:37.416Z,39.55
2019-06-26T08:54:23.952Z,42.25
2019-06-26T08:55:10.764Z,43.08
2019-06-26T08:55:57.142Z,40.65
2019-06-26T08:56:43.723Z,40.58
2019-06-26T08:57:29.865Z,36.17
2019-06-26T08:58:16.295Z,39.08
2019-06-26T08:59:02.160Z,41.58
2019-06-26T08:59:48.173Z,42.10
2019-06-26T09:00:36.431Z,38.63
2019-06-26T09:01:22.578Z,47.48
2019-06-26T09:02:09.043Z,43.98
2019-06-26T09:02:55.060Z,47.27
2019-06-26T09:03:42.189Z,40.48
2019-06-26T09:04:29.556Z,33.02
2019-06-26T09:05:16.788Z,39.15
2019-06-26T09:06:03.213Z,40.35
2019-06-26T09:06:50.939Z,38.15
2019-06-26T09:07:37.168Z,41.18
2019-06-26T09:08:24.162Z,35.45
2019-06-26T09:09:10.664Z,44.95
2019-06-26T09:09:56.872Z,44.05
2019-06-26T09:10:45.018Z,42.67
2019-06-26T09:11:31.624Z,35.70
2019-06-26T09:12:17.652Z,39.70
2019-06-26T09:13:05.227Z,34.33
2019-06-26T09:13:51.291Z,41.92
2019-06-26T09:14:37.847Z,35.68
2019-06-26T09:15:24.388Z,42.40
2019-06-26T09:16:12.331Z,39.38
2019-06-26T09:17:00.339Z,38.65
2019-06-26T09:17:46.379Z,36.65
2019-06-26T09:18:35.833Z,35.95
2019-06-26T09:19:21.505Z,40.58
2019-06-26T09:20:08.862Z,42.05
2019-06-26T09:20:56.737Z,40.38
2019-06-26T09:21:43.137Z,39.08
2019-06-26T09:22:31.055Z,42.98
2019-06-26T09:23:17.369Z,39.75
2019-06-26T09:24:05.286Z,32.13
2019-06-26T09:24:51.454Z,42.25
2019-06-26T09:25:37.676Z,41.90
2019-06-26T09:26:23.761Z,38.35
2019-06-26T09:27:13.810Z,32.80
2019-06-26T09:27:59.855Z,43.65
2019-06-26T09:28:45.946Z,46.33
2019-06-26T09:29:32.795Z,47.17
2019-06-26T09:30:25.802Z,49.95
2019-06-26T09:31:12.080Z,42.90
2019-06-26T09:31:58.147Z,44.50
2019-06-26T09:32:44.198Z,41.68
2019-06-26T09:33:32.396Z,34.05
2019-06-26T09:34:19.598Z,32.88
2019-06-26T09:35:06.639Z,31.40
2019-06-26T09:35:53.507Z,31.25
2019-06-26T09:36:41.580Z,32.23
2019-06-26T09:37:27.439Z,34.60
2019-06-26T09:38:14.439Z,37.83
2019-06-26T09:39:20.135Z,35.70
2019-06-26T09:40:07.465Z,33.25
2019-06-26T09:40:53.778Z,32.13
2019-06-26T09:41:39.787Z,28.10
2019-06-26T09:42:25.711Z,27.87
2019-06-26T09:43:12.992Z,26.37
2019-06-26T09:43:59.683Z,28.47
2019-06-26T09:44:47.637Z,23.92
2019-06-26T09:45:34.669Z,26.42
2019-06-26T09:46:21.309Z,24.12
2019-06-26T09:47:07.520Z,27.70
2019-06-26T09:47:53.727Z,25.82
2019-06-26T09:48:52.110Z,24.43
2019-06-26T09:49:29.410Z,26.12
2019-06-26T09:50:16.933Z,35.83
2019-06-26T09:51:03.301Z,36.50
2019-06-26T09:51:49.365Z,39.73
2019-06-26T09:52:35.589Z,33.08
2019-06-26T09:53:22.943Z,31.07
2019-06-26T09:54:09.764Z,28.55
2019-06-26T09:54:56.913Z,31.73
2019-06-26T09:55:43.842Z,31.87
2019-06-26T09:56:30.338Z,29.85
2019-06-26T09:57:16.901Z,25.92
2019-06-26T09:58:03.094Z,23.98
2019-06-26T09:58:49.976Z,29.90
2019-06-26T09:59:36.465Z,28.32
2019-06-26T10:00:24.161Z,24.57
2019-06-26T10:01:10.218Z,26.15